Time;durP1;ratioP1;P1;durP2;ratioP2;P2;SDS_P1;SDS_P2;PMS_P1;PMS_P2;Temp;Humidity;BMP_temperature;BMP_pressure;BME280_temperature;BME280_humidity;BME280_pressure;Samples;Min_cycle;Max_cycle;Signal;HPM_P1;HPM_P2
2024/02/29 00:02:20;;;;;;;21.98;11.95;;;;;;;6.58;74.23;92851.41;2070964;69;20245;-77
2024/02/29 00:04:45;;;;;;;18.80;10.52;;;;;;;6.34;75.30;92858.63;2071233;69;20152;-77
2024/02/29 00:07:11;;;;;;;17.00;10.50;;;;;;;6.54;74.25;92848.28;2068095;69;20195;-76
2024/02/29 00:09:37;;;;;;;21.20;11.10;;;;;;;6.49;74.28;92854.88;2071092;69;20189;-76
2024/02/29 00:12:03;;;;;;;21.67;10.93;;;;;;;6.63;73.57;92859.50;2071113;69;20145;-77
2024/02/29 00:14:29;;;;;;;19.17;10.95;;;;;;;6.53;74.17;92855.19;2071261;69;20735;-77
2024/02/29 00:16:57;;;;;;;17.55;10.43;;;;;;;6.54;73.65;92845.47;2071228;69;20154;-78
2024/02/29 00:19:23;;;;;;;19.45;10.55;;;;;;;6.63;73.02;92844.78;2071318;69;20144;-78
2024/02/29 00:21:49;;;;;;;22.08;11.35;;;;;;;6.53;73.80;92847.53;2071414;69;20160;-77
2024/02/29 00:24:15;;;;;;;19.23;10.73;;;;;;;6.56;73.73;92846.41;2071324;69;20155;-77
2024/02/29 00:26:41;;;;;;;22.65;11.82;;;;;;;6.35;74.18;92848.91;2071216;69;20140;-77
2024/02/29 00:29:09;;;;;;;20.35;10.45;;;;;;;6.18;74.59;92835.72;2071369;69;20198;-77
2024/02/29 00:31:35;;;;;;;19.88;11.00;;;;;;;6.39;73.74;92842.91;2071197;69;20165;-78
2024/02/29 00:34:01;;;;;;;20.73;10.93;;;;;;;6.11;75.16;92833.78;2071413;69;20301;-78
2024/02/29 00:36:27;;;;;;;23.88;11.35;;;;;;;6.31;74.34;92829.75;2067969;69;20145;-80
2024/02/29 00:38:52;;;;;;;23.02;10.35;;;;;;;5.99;75.71;92832.81;2071161;69;20143;-78
2024/02/29 00:41:19;;;;;;;20.15;10.55;;;;;;;6.28;74.64;92844.19;2071284;69;20132;-77
2024/02/29 00:43:45;;;;;;;19.20;10.00;;;;;;;6.10;75.53;92830.25;2071132;69;20163;-78
2024/02/29 00:46:10;;;;;;;18.55;9.80;;;;;;;6.32;74.50;92834.06;2071330;69;20259;-79
2024/02/29 00:48:36;;;;;;;18.95;10.05;;;;;;;6.31;73.52;92829.03;2068057;69;20148;-76
2024/02/29 00:51:03;;;;;;;15.23;8.73;;;;;;;6.34;73.37;92828.63;2071877;69;20722;-77
2024/02/29 00:53:28;;;;;;;16.00;9.05;;;;;;;6.28;73.73;92816.97;2068505;69;20588;-77
2024/02/29 00:59:41;;;;;;;21.42;9.23;;;;;;;6.11;73.63;92811.41;2071706;69;20162;-80
2024/02/29 01:02:07;;;;;;;17.85;9.10;;;;;;;6.18;72.78;92812.63;2071767;69;20144;-77
2024/02/29 01:04:32;;;;;;;14.25;8.50;;;;;;;6.08;73.65;92806.97;2071645;69;20137;-78
2024/02/29 01:06:58;;;;;;;16.02;8.45;;;;;;;5.68;74.87;92791.25;2071930;69;20139;-78
2024/02/29 01:09:27;;;;;;;14.43;8.48;;;;;;;5.81;74.79;92807.66;2071773;69;20159;-78
2024/02/29 01:15:40;;;;;;;15.82;8.13;;;;;;;5.79;73.32;92798.38;2071651;69;20151;-77
2024/02/29 01:18:07;;;;;;;15.13;8.52;;;;;;;5.86;73.06;92795.50;2068381;69;20519;-79
2024/02/29 01:20:33;;;;;;;16.85;8.35;;;;;;;5.92;73.19;92800.13;2068588;69;20187;-79
2024/02/29 01:22:59;;;;;;;15.77;8.13;;;;;;;5.79;73.22;92790.00;2071985;69;20235;-77
2024/02/29 01:25:25;;;;;;;17.00;9.07;;;;;;;5.55;73.68;92797.19;2071645;69;20160;-79
2024/02/29 01:27:50;;;;;;;15.55;8.38;;;;;;;5.49;74.54;92780.66;2065534;69;20140;-78
2024/02/29 01:30:16;;;;;;;15.48;8.25;;;;;;;5.54;74.39;92776.91;2071870;69;20622;-77
2024/02/29 01:32:42;;;;;;;14.20;8.10;;;;;;;5.56;74.50;92785.44;2071788;69;20163;-77
2024/02/29 01:35:09;;;;;;;14.93;8.35;;;;;;;5.52;74.21;92779.53;2071842;69;20147;-77
2024/02/29 01:37:35;;;;;;;16.33;8.40;;;;;;;5.52;74.31;92784.38;2071407;69;20155;-78
2024/02/29 01:40:01;;;;;;;15.40;7.97;;;;;;;5.46;74.09;92781.09;2071661;69;20180;-77
2024/02/29 01:42:27;;;;;;;14.02;7.82;;;;;;;5.42;74.33;92784.28;2071782;69;20156;-77
2024/02/29 01:48:41;;;;;;;17.63;8.38;;;;;;;5.28;74.73;92769.94;2071626;69;20132;-79
2024/02/29 01:51:08;;;;;;;13.82;7.65;;;;;;;5.35;73.91;92774.69;2071492;69;20591;-77
2024/02/29 01:53:34;;;;;;;13.65;7.20;;;;;;;5.23;74.20;92767.41;2071621;69;20160;-77
2024/02/29 01:56:00;;;;;;;16.23;7.90;;;;;;;5.19;74.06;92770.59;2071479;69;20519;-77
2024/02/29 01:58:26;;;;;;;13.63;7.97;;;;;;;4.99;74.35;92764.06;2068441;69;20124;-78
2024/02/29 02:00:52;;;;;;;14.23;7.95;;;;;;;5.21;73.99;92762.38;2071585;69;20195;-77
2024/02/29 02:03:18;;;;;;;17.42;7.95;;;;;;;5.18;74.04;92765.56;2071292;69;20148;-76
2024/02/29 02:05:44;;;;;;;13.57;8.10;;;;;;;5.13;73.81;92758.19;2071555;69;20500;-77
2024/02/29 02:08:11;;;;;;;14.60;8.32;;;;;;;5.08;73.86;92749.47;2071645;69;20507;-78
2024/02/29 02:10:37;;;;;;;13.32;7.30;;;;;;;5.05;74.12;92747.13;2068455;69;20156;-78
2024/02/29 02:13:03;;;;;;;15.77;7.90;;;;;;;4.97;73.91;92743.66;2071362;69;20136;-76
2024/02/29 02:15:30;;;;;;;17.05;7.88;;;;;;;5.01;74.25;92746.78;2065637;69;20140;-76
2024/02/29 02:17:55;;;;;;;15.32;7.78;;;;;;;4.87;74.26;92728.88;2068224;69;20144;-77
2024/02/29 02:20:21;;;;;;;15.90;8.18;;;;;;;4.94;74.25;92742.75;2071787;69;20500;-76
2024/02/29 02:22:46;;;;;;;12.68;7.13;;;;;;;4.84;74.73;92730.75;2071374;69;20293;-76
2024/02/29 02:25:12;;;;;;;14.55;7.47;;;;;;;4.58;74.69;92729.31;2071313;69;20592;-77
2024/02/29 02:27:38;;;;;;;12.05;6.55;;;;;;;4.67;74.93;92722.38;2071278;69;20144;-79
2024/02/29 02:30:06;;;;;;;12.40;6.57;;;;;;;4.72;75.62;92732.53;2068173;69;20144;-77
2024/02/29 02:32:33;;;;;;;12.20;6.93;;;;;;;4.76;74.90;92732.88;2068143;69;20164;-77
2024/02/29 02:35:00;;;;;;;13.73;7.25;;;;;;;4.85;74.27;92727.38;2071435;69;20220;-77
2024/02/29 02:37:25;;;;;;;13.85;7.43;;;;;;;4.83;74.26;92726.50;2071525;69;20200;-78
2024/02/29 02:39:51;;;;;;;12.80;7.70;;;;;;;4.50;74.09;92709.91;2071585;69;20643;-77
2024/02/29 02:42:16;;;;;;;15.75;7.82;;;;;;;4.62;75.02;92718.50;2071349;69;20155;-77
2024/02/29 02:44:42;;;;;;;15.02;7.70;;;;;;;4.53;75.33;92713.56;2071594;69;20136;-76
2024/02/29 02:47:07;;;;;;;12.02;6.38;;;;;;;4.59;76.43;92709.25;2071494;69;20156;-77
2024/02/29 02:49:33;;;;;;;13.82;7.05;;;;;;;4.68;76.32;92721.09;2071745;69;20154;-77
2024/02/29 02:52:00;;;;;;;13.35;5.97;;;;;;;4.67;75.21;92706.38;2071628;69;20167;-76
2024/02/29 02:54:25;;;;;;;12.90;6.20;;;;;;;4.72;75.32;92713.78;2071741;69;20165;-78
2024/02/29 02:56:51;;;;;;;11.55;6.00;;;;;;;4.76;74.90;92714.09;2071264;69;20275;-77
2024/02/29 02:59:17;;;;;;;10.88;5.55;;;;;;;4.78;75.82;92705.91;2071611;69;20148;-78
2024/02/29 03:01:43;;;;;;;9.40;5.10;;;;;;;4.84;74.95;92700.06;2071460;69;20214;-77
2024/02/29 03:04:08;;;;;;;9.43;5.13;;;;;;;4.78;74.76;92696.81;2071553;69;20148;-78
2024/02/29 03:06:34;;;;;;;12.95;5.88;;;;;;;4.53;75.52;92685.69;2067907;69;20229;-77
2024/02/29 03:08:59;;;;;;;12.55;5.10;;;;;;;4.74;75.40;92700.00;2071275;69;20588;-77
2024/02/29 03:15:12;;;;;;;10.27;4.95;;;;;;;4.78;75.78;92694.75;2071556;69;20291;-77
2024/02/29 03:17:40;;;;;;;11.07;5.22;;;;;;;4.63;76.42;92696.94;2067984;69;20195;-76
2024/02/29 03:20:13;;;;;;;9.95;5.95;;;;;;;4.64;75.98;92696.38;2071555;69;20569;-77
2024/02/29 03:22:57;;;;;;;12.50;5.55;;;;;;;4.64;75.31;92687.28;2071605;69;20136;-79
2024/02/29 03:25:22;;;;;;;11.02;5.35;;;;;;;4.52;75.34;92668.22;2071389;69;20183;-78
2024/02/29 03:27:50;;;;;;;10.18;5.22;;;;;;;4.61;75.52;92691.22;2071220;69;20523;-77
2024/02/29 03:30:17;;;;;;;9.13;5.80;;;;;;;4.48;76.04;92695.78;2071352;69;20132;-77
2024/02/29 03:32:43;;;;;;;12.43;5.50;;;;;;;4.42;76.81;92689.72;2071124;69;20171;-77
2024/02/29 03:35:08;;;;;;;11.32;5.60;;;;;;;4.47;75.80;92688.72;2071429;69;20148;-78
2024/02/29 03:37:35;;;;;;;11.52;5.38;;;;;;;4.51;75.18;92691.13;2071710;69;20230;-78
2024/02/29 03:40:01;;;;;;;12.80;5.32;;;;;;;4.59;75.36;92686.94;2071474;69;20583;-77
2024/02/29 03:42:27;;;;;;;11.50;4.80;;;;;;;4.56;76.03;92681.78;2071296;69;20187;-79
2024/02/29 03:44:52;;;;;;;9.75;5.45;;;;;;;4.51;75.96;92680.69;2068242;69;20283;-77
2024/02/29 03:47:18;;;;;;;11.13;6.03;;;;;;;4.34;75.74;92677.88;2071517;69;20140;-75
2024/02/29 03:49:43;;;;;;;12.48;6.25;;;;;;;4.27;76.76;92673.88;2071216;69;20235;-78
2024/02/29 03:52:10;;;;;;;11.80;6.18;;;;;;;4.36;75.81;92674.53;2070812;69;20252;-77
2024/02/29 03:54:35;;;;;;;10.60;5.97;;;;;;;4.26;76.19;92682.78;2071157;69;20140;-78
2024/02/29 03:57:01;;;;;;;14.43;6.50;;;;;;;4.29;75.46;92687.22;2071530;69;20140;-78
2024/02/29 03:59:28;;;;;;;11.10;5.68;;;;;;;4.33;75.16;92684.78;2071135;69;20201;-78
2024/02/29 04:01:54;;;;;;;13.32;6.13;;;;;;;4.12;75.73;92687.16;2071219;69;20144;-77
2024/02/29 04:04:44;;;;;;;14.20;6.32;;;;;;;4.20;76.10;92673.91;2071235;69;20148;-79
2024/02/29 04:07:10;;;;;;;12.77;6.22;;;;;;;4.21;75.20;92669.81;2071183;69;20145;-78
2024/02/29 04:09:36;;;;;;;19.17;6.75;;;;;;;3.79;77.11;92668.47;2071310;69;20594;-77
2024/02/29 04:12:01;;;;;;;12.77;6.15;;;;;;;3.96;76.53;92678.22;2071602;69;20171;-76
2024/02/29 04:14:27;;;;;;;10.65;5.60;;;;;;;4.02;76.05;92676.66;2071564;69;20148;-77
2024/02/29 04:16:52;;;;;;;12.52;5.78;;;;;;;4.02;76.46;92667.56;2071231;69;20144;-77
2024/02/29 04:19:18;;;;;;;11.38;5.80;;;;;;;4.05;75.85;92666.44;2071341;69;20140;-78
2024/02/29 04:21:45;;;;;;;15.52;7.07;;;;;;;4.01;76.15;92666.81;2071265;69;20156;-78
2024/02/29 04:24:11;;;;;;;17.73;9.13;;;;;;;3.68;76.61;92663.38;2071394;69;20148;-77
2024/02/29 04:26:42;;;;;;;14.55;6.95;;;;;;;3.77;76.96;92662.75;2071150;69;20469;-77
2024/02/29 04:29:07;;;;;;;17.17;6.57;;;;;;;3.87;76.97;92662.13;2071470;69;20149;-77
2024/02/29 04:31:33;;;;;;;12.02;5.05;;;;;;;3.97;77.18;92660.19;2071720;69;20195;-77
2024/02/29 04:33:59;;;;;;;15.70;6.85;;;;;;;3.90;76.59;92652.63;2071443;69;20163;-78
2024/02/29 04:36:27;;;;;;;12.38;6.63;;;;;;;3.90;76.46;92656.16;2071677;69;20163;-77
2024/02/29 04:38:56;;;;;;;13.25;8.20;;;;;;;3.60;77.59;92648.75;2071682;69;20596;-78
2024/02/29 04:41:22;;;;;;;13.27;6.40;;;;;;;3.70;78.21;92657.22;2071893;69;20172;-77
2024/02/29 04:43:48;;;;;;;9.77;5.75;;;;;;;3.88;77.05;92646.88;2071676;69;20156;-79
2024/02/29 04:46:14;;;;;;;15.00;6.10;;;;;;;3.81;77.16;92656.78;2071587;69;20155;-77
2024/02/29 04:48:39;;;;;;;13.77;6.57;;;;;;;3.92;76.86;92650.00;2071676;69;20152;-77
2024/02/29 04:51:05;;;;;;;14.32;7.57;;;;;;;3.77;76.81;92650.88;2071820;69;20147;-79
2024/02/29 04:53:31;;;;;;;19.67;8.32;;;;;;;3.71;76.82;92653.88;2071710;69;20136;-78
2024/02/29 04:55:57;;;;;;;15.07;7.22;;;;;;;3.75;76.61;92651.41;2071783;69;20148;-76
2024/02/29 04:58:22;;;;;;;15.57;7.70;;;;;;;3.70;76.08;92651.66;2071642;69;20599;-76
2024/02/29 05:00:48;;;;;;;14.73;7.05;;;;;;;3.77;75.92;92648.09;2071583;69;20184;-76
2024/02/29 05:03:13;;;;;;;16.92;7.55;;;;;;;3.77;76.66;92648.09;2071433;69;20164;-77
2024/02/29 05:05:39;;;;;;;12.75;7.40;;;;;;;3.79;75.93;92656.59;2071723;69;20272;-77
2024/02/29 05:08:05;;;;;;;16.08;7.40;;;;;;;3.62;76.79;92646.16;2071561;69;20156;-79
2024/02/29 05:10:31;;;;;;;13.48;7.35;;;;;;;3.54;76.88;92646.19;2071770;69;20141;-77
2024/02/29 05:12:57;;;;;;;12.93;6.85;;;;;;;3.62;77.21;92651.72;2071713;69;20663;-77
2024/02/29 05:15:25;;;;;;;12.35;6.75;;;;;;;3.70;75.99;92655.16;2071520;69;20146;-77
2024/02/29 05:17:53;;;;;;;13.88;7.20;;;;;;;3.63;76.56;92653.19;2071721;69;20515;-76
2024/02/29 05:20:19;;;;;;;16.40;6.93;;;;;;;3.56;77.01;92656.75;2071913;69;20144;-78
2024/02/29 05:26:32;;;;;;;15.68;6.75;;;;;;;3.61;75.99;92661.34;2071839;69;20252;-80
2024/02/29 05:28:57;;;;;;;14.73;6.85;;;;;;;3.58;75.31;92645.81;2072000;69;20180;-78
2024/02/29 05:31:23;;;;;;;16.55;7.28;;;;;;;3.55;75.72;92661.59;2068595;69;20495;-77
2024/02/29 05:33:49;;;;;;;13.43;6.55;;;;;;;3.44;76.05;92650.91;2071877;69;20150;-78
2024/02/29 05:40:05;;;;;;;20.48;8.25;;;;;;;3.27;76.81;92651.53;2071932;69;20198;-78
2024/02/29 05:42:32;;;;;;;79.13;31.67;;;;;;;3.30;76.43;92656.00;2071444;69;20807;-79
2024/02/29 05:44:57;;;;;;;40.08;18.45;;;;;;;3.33;77.32;92658.94;2071741;69;20136;-79
2024/02/29 05:47:23;;;;;;;27.60;13.55;;;;;;;3.31;76.52;92663.03;2068351;69;20155;-78
2024/02/29 05:49:51;;;;;;;26.38;12.20;;;;;;;3.24;76.15;92663.78;2072026;69;20140;-78
2024/02/29 05:52:17;;;;;;;51.65;21.38;;;;;;;3.29;76.28;92660.06;2068353;69;20247;-78
2024/02/29 05:54:44;;;;;;;63.08;26.80;;;;;;;3.20;75.97;92662.69;2071766;69;20576;-77
2024/02/29 05:57:09;;;;;;;57.78;25.85;;;;;;;3.13;77.21;92653.09;2071733;69;20668;-78
2024/02/29 05:59:35;;;;;;;59.35;25.50;;;;;;;3.29;76.83;92665.63;2071818;69;20140;-77
2024/02/29 06:02:00;;;;;;;31.17;13.95;;;;;;;3.35;76.96;92664.69;2071533;69;20655;-76
2024/02/29 06:04:26;;;;;;;35.10;14.40;;;;;;;3.33;76.76;92667.28;2071759;69;20156;-77
2024/02/29 06:06:51;;;;;;;31.20;12.48;;;;;;;3.29;77.13;92667.66;2071751;69;20535;-78
2024/02/29 06:09:17;;;;;;;32.47;16.67;;;;;;;3.33;76.55;92672.84;2071920;69;20575;-76
2024/02/29 06:11:43;;;;;;;43.38;20.40;;;;;;;3.40;75.68;92664.47;2072070;69;20176;-78
2024/02/29 06:14:09;;;;;;;39.92;21.42;;;;;;;3.46;75.98;92676.13;2071810;69;20148;-77
2024/02/29 06:16:35;;;;;;;41.05;18.65;;;;;;;3.23;76.68;92673.44;2071819;69;20144;-77
2024/02/29 06:19:01;;;;;;;40.00;21.85;;;;;;;3.26;76.96;92663.25;2068541;69;20148;-77
2024/02/29 06:21:27;;;;;;;33.63;16.48;;;;;;;3.39;76.34;92670.56;2071543;69;20235;-78
2024/02/29 06:23:55;;;;;;;48.97;26.42;;;;;;;3.35;76.79;92673.78;2071451;69;20619;-77
2024/02/29 06:26:21;;;;;;;43.60;21.45;;;;;;;3.22;77.39;92662.91;2071566;69;20604;-76
2024/02/29 06:28:47;;;;;;;39.78;21.95;;;;;;;3.33;76.57;92678.41;2071856;69;20213;-77
2024/02/29 06:31:12;;;;;;;35.85;20.83;;;;;;;3.35;76.65;92675.81;2071727;69;20187;-76
2024/02/29 06:33:38;;;;;;;31.35;17.13;;;;;;;3.29;76.87;92673.97;2071651;69;20626;-78
2024/02/29 06:36:04;;;;;;;28.17;17.58;;;;;;;3.27;76.78;92673.06;2071424;69;20153;-77
2024/02/29 06:38:30;;;;;;;32.15;18.02;;;;;;;3.43;76.63;92670.94;2071728;69;20153;-79
2024/02/29 06:40:55;;;;;;;27.85;16.52;;;;;;;3.47;76.25;92674.81;2071606;69;20144;-78
2024/02/29 06:43:21;;;;;;;32.08;16.02;;;;;;;3.47;76.27;92674.06;2071427;69;20156;-80
2024/02/29 06:45:48;;;;;;;31.45;15.85;;;;;;;3.40;76.64;92674.88;2071472;69;20147;-76
2024/02/29 06:48:15;;;;;;;24.83;14.07;;;;;;;3.30;76.76;92664.34;2068310;69;20200;-77
2024/02/29 06:50:42;;;;;;;25.05;14.40;;;;;;;3.27;77.67;92659.91;2071752;69;20140;-76
2024/02/29 06:53:12;;;;;;;27.05;14.88;;;;;;;3.43;76.70;92663.31;2068289;69;20595;-78
2024/02/29 06:55:37;;;;;;;32.45;16.27;;;;;;;3.29;77.38;92662.84;2071681;69;20217;-76
2024/02/29 06:58:05;;;;;;;29.42;15.55;;;;;;;3.49;76.85;92663.84;2068103;69;20132;-76
2024/02/29 07:00:32;;;;;;;33.15;14.45;;;;;;;3.46;76.37;92653.84;2068442;69;20132;-76
2024/02/29 07:02:57;;;;;;;28.02;14.68;;;;;;;3.61;75.77;92661.34;2071527;69;20626;-76
2024/02/29 07:05:23;;;;;;;30.35;15.65;;;;;;;3.47;76.17;92658.09;2071790;69;20148;-76
2024/02/29 07:07:52;;;;;;;32.90;16.13;;;;;;;3.49;76.57;92652.00;2071713;69;20150;-73
2024/02/29 07:10:19;;;;;;;28.65;13.68;;;;;;;3.56;76.65;92657.50;2071639;69;20151;-73
2024/02/29 07:12:45;;;;;;;23.05;10.63;;;;;;;3.41;78.27;92654.81;2071360;69;20162;-74
2024/02/29 07:15:12;;;;;;;24.70;12.25;;;;;;;3.46;77.81;92648.28;2071579;69;20144;-73
2024/02/29 07:17:38;;;;;;;15.13;7.95;;;;;;;3.66;78.19;92649.25;2071414;69;20132;-74
2024/02/29 07:20:04;;;;;;;15.90;8.80;;;;;;;3.68;77.51;92646.66;2071531;69;20139;-72
2024/02/29 07:22:30;;;;;;;13.73;7.05;;;;;;;3.91;77.54;92648.53;2071537;69;20137;-74
2024/02/29 07:24:56;;;;;;;22.98;11.02;;;;;;;3.75;77.54;92651.41;2071700;69;20176;-74
2024/02/29 07:27:22;;;;;;;18.52;10.35;;;;;;;3.66;77.92;92645.72;2071461;69;20196;-74
2024/02/29 07:29:47;;;;;;;22.42;11.60;;;;;;;3.89;76.70;92642.78;2071600;69;20243;-74
2024/02/29 07:32:13;;;;;;;23.58;11.70;;;;;;;4.06;76.43;92640.03;2071651;69;20150;-73
2024/02/29 07:34:39;;;;;;;21.40;12.13;;;;;;;4.01;76.43;92636.19;2068236;69;20227;-76
2024/02/29 07:37:05;;;;;;;23.52;11.73;;;;;;;4.08;76.47;92640.97;2071619;69;20140;-84
2024/02/29 07:39:30;;;;;;;25.85;12.35;;;;;;;4.06;76.27;92618.50;2071610;69;20144;-75
2024/02/29 07:41:56;;;;;;;23.02;11.68;;;;;;;4.18;76.49;92632.69;2071585;69;20570;-72
2024/02/29 07:44:22;;;;;;;23.75;12.05;;;;;;;4.21;76.31;92633.59;2071375;69;20149;-74
2024/02/29 07:46:47;;;;;;;22.65;11.10;;;;;;;4.21;76.17;92633.59;2071361;69;20155;-74
2024/02/29 07:49:13;;;;;;;22.80;12.40;;;;;;;4.33;75.39;92629.03;2071494;69;20140;-73
2024/02/29 07:51:38;;;;;;;31.48;13.45;;;;;;;4.06;76.41;92626.13;2071441;69;20217;-74
2024/02/29 07:54:04;;;;;;;23.45;12.77;;;;;;;4.28;76.17;92624.44;2068009;69;20148;-73
2024/02/29 07:56:30;;;;;;;26.48;13.30;;;;;;;4.40;75.85;92627.47;2071524;69;20227;-73
2024/02/29 07:58:56;;;;;;;22.20;12.00;;;;;;;4.42;75.97;92625.59;2072186;69;20175;-74
2024/02/29 08:01:22;;;;;;;22.13;11.18;;;;;;;4.24;76.04;92615.75;2072108;69;20235;-73
2024/02/29 08:03:47;;;;;;;29.85;14.30;;;;;;;4.14;76.11;92621.22;2072116;69;20578;-74
2024/02/29 08:06:14;;;;;;;29.60;13.35;;;;;;;4.27;76.00;92611.81;2071999;69;20140;-73
2024/02/29 08:08:40;;;;;;;33.38;13.77;;;;;;;4.37;75.89;92617.47;2071953;69;20228;-74
2024/02/29 08:11:06;;;;;;;26.10;13.02;;;;;;;4.53;75.48;92621.56;2072005;69;20518;-73
2024/02/29 08:13:31;;;;;;;24.10;12.75;;;;;;;4.56;75.35;92607.22;2071961;69;20144;-77
2024/02/29 08:15:57;;;;;;;25.30;12.40;;;;;;;4.58;75.49;92601.84;2072085;69;20148;-74
2024/02/29 08:18:23;;;;;;;29.80;12.73;;;;;;;4.64;75.19;92600.84;2071950;69;20159;-74
2024/02/29 08:20:48;;;;;;;26.00;12.65;;;;;;;4.62;75.15;92598.59;2071964;69;20156;-77
2024/02/29 08:23:15;;;;;;;33.13;13.20;;;;;;;4.85;74.66;92592.75;2072018;69;20161;-75
2024/02/29 08:25:41;;;;;;;29.95;13.07;;;;;;;5.07;75.10;92599.38;2071898;69;20176;-77
2024/02/29 08:28:07;;;;;;;24.88;13.68;;;;;;;5.32;78.01;92594.41;2072041;69;20141;-78
2024/02/29 08:30:33;;;;;;;31.02;14.80;;;;;;;5.75;76.62;92586.50;2072008;69;20168;-74
2024/02/29 08:32:59;;;;;;;21.38;11.60;;;;;;;6.17;76.45;92577.09;2072006;69;20495;-75
2024/02/29 08:35:24;;;;;;;20.38;9.98;;;;;;;6.31;75.56;92583.00;2072130;69;20150;-77
2024/02/29 08:37:50;;;;;;;22.35;11.23;;;;;;;6.59;74.69;92573.88;2072060;69;20148;-77
2024/02/29 08:40:16;;;;;;;32.92;18.60;;;;;;;6.92;74.86;92569.91;2072022;69;20144;-77
2024/02/29 08:42:42;;;;;;;27.98;13.38;;;;;;;7.02;73.71;92570.66;2068604;69;20251;-75
2024/02/29 08:45:11;;;;;;;26.90;13.50;;;;;;;7.42;73.06;92561.56;2071847;69;20528;-75
2024/02/29 08:47:37;;;;;;;20.73;9.90;;;;;;;7.81;71.40;92553.03;2071596;69;20226;-75
2024/02/29 08:50:03;;;;;;;20.83;10.63;;;;;;;8.12;70.58;92561.44;2071983;69;20262;-76
2024/02/29 08:52:31;;;;;;;20.10;8.52;;;;;;;8.03;68.68;92562.22;2071877;69;20604;-75
2024/02/29 08:54:57;;;;;;;17.45;8.30;;;;;;;8.40;68.36;92549.31;2068546;69;20236;-74
2024/02/29 08:57:23;;;;;;;17.73;7.32;;;;;;;8.78;66.79;92546.81;2071915;69;20209;-74
2024/02/29 08:59:50;;;;;;;21.00;7.63;;;;;;;9.19;66.32;92538.91;2071973;69;20184;-77
2024/02/29 09:02:18;;;;;;;14.93;7.22;;;;;;;9.56;65.18;92535.56;2071795;69;20148;-74
2024/02/29 09:04:44;;;;;;;19.58;8.20;;;;;;;9.78;65.79;92524.97;2071950;69;20691;-74
2024/02/29 09:07:10;;;;;;;15.40;7.55;;;;;;;10.20;65.18;92523.97;2071500;69;20125;-75
2024/02/29 09:09:36;;;;;;;14.13;7.45;;;;;;;10.31;64.17;92512.00;2071932;69;20175;-75
2024/02/29 09:12:06;;;;;;;20.95;7.00;;;;;;;10.78;63.24;92503.44;2071966;69;20231;-73
2024/02/29 09:14:32;;;;;;;16.48;6.93;;;;;;;10.81;60.88;92507.84;2071929;69;20243;-74
2024/02/29 09:16:57;;;;;;;15.98;7.82;;;;;;;10.71;60.60;92495.25;2071698;69;20136;-77
2024/02/29 09:19:23;;;;;;;16.38;6.18;;;;;;;10.93;62.20;92500.06;2071850;69;20159;-73
2024/02/29 09:21:48;;;;;;;12.18;5.50;;;;;;;11.00;60.94;92489.88;2068371;69;20171;-73
2024/02/29 09:24:14;;;;;;;17.10;6.50;;;;;;;11.36;61.35;92485.50;2071811;69;20610;-73
2024/02/29 09:26:40;;;;;;;15.32;5.95;;;;;;;11.16;60.85;92485.13;2067342;69;20163;-73
2024/02/29 09:29:05;;;;;;;13.00;5.50;;;;;;;12.00;59.75;92474.75;2068195;69;20149;-73
2024/02/29 09:31:31;;;;;;;12.27;5.30;;;;;;;12.12;59.32;92475.41;2067782;69;20152;-79
2024/02/29 09:33:56;;;;;;;14.45;5.45;;;;;;;12.76;58.87;92471.53;2068260;69;20597;-79
2024/02/29 09:36:22;;;;;;;16.55;5.30;;;;;;;13.47;57.80;92471.41;2068327;69;20176;-75
2024/02/29 09:38:48;;;;;;;13.77;4.68;;;;;;;13.07;55.32;92456.06;2068465;69;20243;-76
2024/02/29 09:45:01;;;;;;;11.68;4.05;;;;;;;13.58;54.79;92452.81;2068424;69;20135;-77
2024/02/29 09:47:28;;;;;;;13.40;4.97;;;;;;;13.45;54.47;92446.59;2068388;69;20159;-78
2024/02/29 09:49:54;;;;;;;11.02;4.22;;;;;;;13.91;52.48;92443.69;2068337;69;20596;-78
2024/02/29 09:52:22;;;;;;;10.82;4.38;;;;;;;13.87;53.06;92443.50;2067941;69;20153;-80
2024/02/29 09:54:48;;;;;;;9.02;4.10;;;;;;;13.91;51.94;92427.41;2068317;69;20278;-78
2024/02/29 09:57:14;;;;;;;12.85;5.13;;;;;;;14.51;54.11;92427.88;2068258;69;20137;-75
2024/02/29 09:59:42;;;;;;;14.85;4.25;;;;;;;15.55;51.69;92429.19;2064983;69;20139;-77
2024/02/29 10:02:15;;;;;;;11.60;4.07;;;;;;;15.27;50.86;92425.25;2068272;69;20200;-79
2024/02/29 10:04:40;;;;;;;;;;;;;;;15.66;49.73;92422.53;2068446;69;20592;-77
2024/02/29 10:07:09;;;;;;;12.07;3.78;;;;;;;15.71;48.48;92427.00;2068057;69;20047;-80
2024/02/29 10:09:35;;;;;;;13.15;4.03;;;;;;;15.63;48.17;92414.59;2068287;69;20151;-74
2024/02/29 10:12:01;;;;;;;9.60;3.97;;;;;;;16.19;48.91;92413.09;2068396;69;20140;-77
2024/02/29 10:14:30;;;;;;;9.13;4.00;;;;;;;17.19;47.17;92416.47;2068420;69;20155;-73
2024/02/29 10:16:56;;;;;;;7.05;3.92;;;;;;;16.90;46.20;92403.44;2068386;69;20227;-79
2024/02/29 10:19:23;;;;;;;9.43;3.97;;;;;;;16.16;48.11;92399.50;2068569;69;20159;-80
2024/02/29 10:21:50;;;;;;;10.35;4.20;;;;;;;17.45;44.80;92393.78;2068428;69;20159;-75
2024/02/29 10:24:23;;;;;;;7.25;3.70;;;;;;;16.95;46.29;92388.00;2068297;69;20210;-79
2024/02/29 10:26:49;;;;;;;7.75;3.60;;;;;;;17.83;44.45;92385.00;2070454;69;20203;-80
2024/02/29 10:29:16;;;;;;;11.38;3.88;;;;;;;17.56;43.74;92379.91;2071715;69;20242;-78
2024/02/29 10:31:43;;;;;;;10.48;3.75;;;;;;;17.93;43.64;92390.25;2071224;69;20147;-75
2024/02/29 10:34:12;;;;;;;12.95;4.75;;;;;;;16.90;45.13;92382.81;2068149;69;20183;-76
2024/02/29 10:40:25;;;;;;;13.05;5.72;;;;;;;20.26;41.63;92368.81;2071694;69;20159;-76
2024/02/29 10:42:55;;;;;;;14.63;7.65;;;;;;;20.23;40.93;92366.59;2071671;69;20218;-79
2024/02/29 10:45:23;;;;;;;16.92;10.00;;;;;;;20.92;40.77;92355.72;2071641;69;20167;-78
2024/02/29 10:48:00;;;;;;;11.50;6.28;;;;;;;21.27;40.40;92357.00;2071682;69;20239;-83
2024/02/29 10:54:19;;;;;;;10.57;4.40;;;;;;;19.98;39.87;92342.53;2071787;69;20254;-78
2024/02/29 10:56:46;;;;;;;;;;;;;;;21.04;39.14;92339.50;2071942;69;20129;-77
2024/02/29 10:59:15;;;;;;;13.27;4.60;;;;;;;23.42;37.56;92340.19;2071706;69;20110;-76
2024/02/29 11:01:41;;;;;;;14.93;4.32;;;;;;;23.01;36.88;92331.25;2071856;69;20663;-78
2024/02/29 11:04:07;;;;;;;13.77;4.95;;;;;;;22.66;38.05;92345.25;2071679;69;20150;-80
2024/02/29 11:06:38;;;;;;;11.32;5.25;;;;;;;23.70;35.44;92333.94;2071791;69;20247;-72
2024/02/29 11:09:08;;;;;;;9.05;4.43;;;;;;;23.15;36.99;92327.78;2068372;69;20163;-74
2024/02/29 11:11:34;;;;;;;12.35;4.18;;;;;;;22.90;36.30;92321.81;2071751;69;20164;-82
2024/02/29 11:14:09;;;;;;;12.75;4.28;;;;;;;22.56;36.89;92322.19;2068346;69;20152;-80
2024/02/29 11:16:41;;;;;;;10.43;3.60;;;;;;;25.35;34.24;92317.94;2071661;69;20152;-77
2024/02/29 11:19:07;;;;;;;9.32;3.90;;;;;;;26.24;31.21;92299.00;2068487;69;20148;-82
2024/02/29 11:21:34;;;;;;;9.00;2.83;;;;;;;28.10;29.29;92315.06;2071668;69;20197;-78
2024/02/29 11:24:04;;;;;;;12.13;2.28;;;;;;;27.40;28.90;92314.97;2071600;69;20148;-78
2024/02/29 11:26:33;;;;;;;11.05;2.60;;;;;;;28.17;29.49;92309.91;2071510;69;20159;-75
2024/02/29 11:29:11;;;;;;;12.75;2.40;;;;;;;29.22;28.41;92310.03;2071607;69;20155;-76
2024/02/29 11:31:44;;;;;;;9.23;2.15;;;;;;;29.68;25.86;92304.97;2071751;69;20151;-76
2024/02/29 11:34:11;;;;;;;13.65;2.40;;;;;;;29.04;27.53;92297.25;2071593;69;20504;-76
2024/02/29 11:36:37;;;;;;;9.50;4.18;;;;;;;28.52;28.22;92296.50;2071537;69;20220;-74
2024/02/29 11:39:05;;;;;;;11.10;4.25;;;;;;;26.22;30.72;92273.06;2071765;69;20295;-73
2024/02/29 11:41:30;;;;;;;12.10;2.83;;;;;;;28.86;28.46;92285.88;2071346;69;20539;-73
2024/02/29 11:43:56;;;;;;;10.80;2.72;;;;;;;28.80;28.05;92277.28;2071498;69;20159;-72
2024/02/29 11:46:22;;;;;;;15.15;4.28;;;;;;;27.06;28.62;92261.75;2071452;69;20234;-73
2024/02/29 11:48:48;;;;;;;16.35;3.75;;;;;;;26.57;30.33;92264.97;2071544;69;20136;-76
2024/02/29 11:51:15;;;;;;;9.80;3.25;;;;;;;27.98;28.10;92268.91;2071720;69;20232;-79
2024/02/29 11:53:41;;;;;;;8.43;2.65;;;;;;;31.19;26.35;92261.31;2071521;69;20147;-75
2024/02/29 11:56:08;;;;;;;12.75;2.85;;;;;;;31.26;25.50;92251.69;2071577;69;20144;-80
2024/02/29 11:58:34;;;;;;;12.30;3.10;;;;;;;30.31;26.31;92249.41;2071564;69;20136;-76
2024/02/29 12:01:00;;;;;;;9.65;3.03;;;;;;;31.31;25.39;92250.13;2071237;69;20298;-75